createdAt,value
2023-05-06T00:02:01.869Z,14.23
2023-05-06T00:04:28.760Z,14.25
2023-05-06T00:07:00.280Z,13.63
2023-05-06T00:09:27.965Z,13.88
2023-05-06T00:12:20.397Z,13.05
2023-05-06T00:14:47.308Z,14.02
2023-05-06T00:17:14.133Z,12.90
2023-05-06T00:19:40.928Z,11.75
2023-05-06T00:22:07.861Z,11.57
2023-05-06T00:24:34.725Z,10.98
2023-05-06T00:27:01.836Z,10.07
2023-05-06T00:29:28.718Z,10.60
2023-05-06T00:31:58.665Z,10.85
2023-05-06T00:34:25.550Z,10.27
2023-05-06T00:36:52.435Z,11.27
2023-05-06T00:39:19.301Z,10.98
2023-05-06T00:41:46.177Z,10.05
2023-05-06T00:44:13.022Z,8.85
2023-05-06T00:46:40.109Z,8.88
2023-05-06T00:49:12.128Z,7.80
2023-05-06T00:51:39.066Z,7.68
2023-05-06T00:54:06.014Z,7.88
2023-05-06T00:56:33.015Z,8.40
2023-05-06T00:59:00.960Z,8.07
2023-05-06T01:01:30.866Z,8.38
2023-05-06T01:03:58.891Z,8.45
2023-05-06T01:06:49.699Z,8.45
2023-05-06T01:09:33.074Z,8.70
2023-05-06T01:14:42.956Z,8.70
2023-05-06T01:17:12.385Z,9.65
2023-05-06T01:19:48.987Z,9.57
2023-05-06T01:22:16.719Z,9.23
2023-05-06T01:24:45.231Z,9.63
2023-05-06T01:27:13.281Z,8.82
2023-05-06T01:29:42.755Z,9.70
2023-05-06T01:32:39.740Z,9.75
2023-05-06T01:35:39.359Z,9.77
2023-05-06T01:38:15.890Z,9.57
2023-05-06T01:40:44.267Z,9.80
2023-05-06T01:43:20.930Z,9.23
2023-05-06T01:45:53.383Z,10.65
2023-05-06T01:48:28.074Z,9.90
2023-05-06T01:50:55.474Z,9.68
2023-05-06T01:53:22.377Z,10.00
2023-05-06T01:55:49.267Z,10.65
2023-05-06T01:58:16.243Z,11.02
2023-05-06T02:00:43.111Z,11.82
2023-05-06T11:19:38.439Z,6.43
2023-05-06T11:22:06.836Z,6.75
2023-05-06T11:24:42.312Z,7.03
2023-05-06T11:27:10.512Z,7.45
2023-05-06T11:29:38.048Z,6.85
2023-05-06T11:32:22.972Z,6.70
2023-05-06T11:34:49.899Z,6.70
2023-05-06T11:37:26.402Z,5.75
2023-05-06T11:39:53.664Z,5.40
2023-05-06T11:42:28.599Z,6.10
2023-05-06T11:44:56.503Z,6.20
2023-05-06T11:47:23.871Z,7.22
2023-05-06T11:49:55.741Z,7.03
2023-05-06T11:52:22.642Z,6.47
2023-05-06T11:54:52.478Z,6.38
2023-05-06T11:57:20.639Z,7.63
2023-05-06T11:59:53.422Z,7.15
2023-05-06T12:02:20.755Z,7.68
2023-05-06T12:04:49.994Z,7.07
2023-05-06T12:07:17.404Z,6.85
2023-05-06T12:09:49.476Z,6.00
2023-05-06T12:12:20.060Z,6.38
2023-05-06T12:14:47.536Z,4.97
2023-05-06T12:17:14.866Z,5.97
2023-05-06T12:19:44.249Z,5.53
2023-05-06T12:22:22.156Z,6.15
2023-05-06T12:24:51.136Z,6.70
2023-05-06T12:27:31.842Z,6.25
2023-05-06T12:29:58.789Z,7.13
2023-05-06T12:32:25.708Z,6.97
2023-05-06T12:34:52.710Z,6.55
2023-05-06T12:37:28.158Z,7.28
2023-05-06T12:39:58.488Z,6.57
2023-05-06T12:42:26.552Z,6.95
2023-05-06T12:44:53.494Z,6.88
2023-05-06T12:47:22.276Z,6.53
2023-05-06T12:49:59.307Z,7.05
2023-05-06T12:52:28.767Z,7.53
2023-05-06T12:54:56.555Z,6.88
2023-05-06T12:57:23.700Z,7.50
2023-05-06T12:59:50.730Z,7.93
2023-05-06T13:02:18.421Z,7.22
2023-05-06T13:04:46.813Z,6.07
2023-05-06T13:07:13.821Z,6.55
2023-05-06T13:09:40.880Z,6.63
2023-05-06T13:12:07.772Z,8.35
2023-05-06T13:14:35.531Z,8.05
2023-05-06T13:17:06.783Z,7.40
2023-05-06T13:19:34.196Z,6.07
2023-05-06T13:22:01.684Z,5.28
2023-05-06T13:24:29.201Z,6.25
2023-05-06T13:26:57.454Z,5.60
2023-05-06T13:29:24.632Z,5.22
2023-05-06T13:31:51.971Z,5.00
2023-05-06T13:34:19.079Z,5.47
2023-05-06T13:36:50.781Z,6.88
2023-05-06T13:39:17.674Z,6.60
2023-05-06T13:41:47.506Z,5.75
2023-05-06T13:44:14.324Z,6.68
2023-05-06T13:46:43.019Z,6.43
2023-05-06T13:49:11.889Z,6.55
2023-05-06T13:51:38.793Z,7.28
2023-05-06T13:54:06.044Z,7.15
2023-05-06T13:56:34.091Z,7.75
2023-05-06T13:59:00.966Z,7.75
2023-05-06T14:01:27.921Z,7.50
2023-05-06T14:03:54.863Z,8.50
2023-05-06T14:06:21.784Z,9.18
2023-05-06T14:08:48.611Z,9.80
2023-05-06T14:11:15.570Z,8.93
2023-05-06T14:13:42.381Z,7.90
2023-05-06T14:16:09.289Z,7.47
2023-05-06T14:18:36.148Z,7.80
2023-05-06T14:21:03.680Z,7.65
2023-05-06T14:23:30.713Z,8.93
2023-05-06T14:25:57.549Z,8.80
2023-05-06T14:28:24.358Z,8.63
2023-05-06T14:30:51.505Z,8.55
2023-05-06T14:33:18.500Z,8.13
2023-05-06T14:35:46.281Z,6.32
2023-05-06T14:38:13.222Z,6.20
2023-05-06T14:40:40.411Z,5.53
2023-05-06T14:43:07.794Z,4.85
2023-05-06T14:45:34.968Z,4.55
2023-05-06T14:48:02.074Z,4.10
2023-05-06T14:50:29.817Z,4.00
2023-05-06T14:52:56.953Z,3.53
2023-05-06T14:55:23.892Z,3.30
2023-05-06T14:57:51.071Z,3.25
2023-05-06T15:00:18.217Z,3.25
2023-05-06T15:02:45.384Z,3.65
2023-05-06T15:05:13.362Z,3.40
2023-05-06T15:07:41.127Z,2.90
2023-05-06T15:10:08.428Z,3.30
2023-05-06T15:12:36.832Z,3.05
2023-05-06T15:15:05.117Z,2.80
2023-05-06T15:17:32.562Z,2.15
2023-05-06T15:19:59.610Z,2.20
2023-05-06T15:22:29.149Z,2.63
2023-05-06T15:24:56.083Z,2.80
2023-05-06T15:27:32.143Z,2.40
2023-05-06T15:30:04.084Z,2.22
2023-05-06T15:32:31.482Z,2.30
2023-05-06T15:34:58.453Z,3.67
2023-05-06T15:37:25.359Z,2.83
2023-05-06T15:39:52.233Z,3.53
2023-05-06T15:42:19.179Z,2.72
2023-05-06T15:44:49.338Z,4.00
2023-05-06T15:47:16.266Z,4.93
2023-05-06T15:52:13.060Z,5.57
2023-05-06T15:54:40.967Z,5.45
2023-05-06T15:57:08.105Z,5.05
2023-05-06T15:59:34.998Z,4.70
2023-05-06T16:04:41.123Z,4.80
2023-05-06T16:07:08.257Z,4.60
2023-05-06T16:09:35.173Z,4.40
2023-05-06T16:12:02.094Z,4.55
2023-05-06T16:14:29.004Z,4.55
2023-05-06T16:16:56.020Z,4.88
2023-05-06T16:19:22.870Z,6.18
2023-05-06T16:21:49.726Z,4.15
2023-05-06T16:24:16.586Z,3.67
2023-05-06T16:26:43.551Z,3.45
2023-05-06T16:29:10.810Z,3.08
2023-05-06T16:31:38.330Z,3.03
2023-05-06T16:34:05.339Z,3.00
2023-05-06T16:36:32.289Z,3.08
2023-05-06T16:38:59.163Z,3.15
2023-05-06T16:41:26.020Z,3.95
2023-05-06T16:43:52.918Z,4.10
2023-05-06T16:46:20.562Z,5.85
2023-05-06T16:48:48.991Z,5.90
2023-05-06T16:51:16.480Z,5.22
2023-05-06T16:53:43.454Z,5.13
2023-05-06T16:56:10.739Z,5.38
2023-05-06T16:58:37.698Z,5.65
2023-05-06T17:01:07.969Z,4.90
2023-05-06T17:03:37.984Z,5.15
2023-05-06T17:06:05.150Z,5.40
2023-05-06T17:08:36.120Z,5.07
2023-05-06T17:11:06.953Z,5.10
2023-05-06T17:13:34.386Z,4.78
2023-05-06T17:16:01.303Z,4.82
2023-05-06T17:18:28.155Z,5.13
2023-05-06T17:20:57.018Z,4.47
2023-05-06T17:23:24.505Z,4.40
2023-05-06T17:25:51.776Z,4.18
2023-05-06T17:28:19.050Z,4.07
2023-05-06T17:30:46.722Z,4.20
2023-05-06T17:33:13.702Z,3.92
2023-05-06T17:35:40.732Z,3.95
2023-05-06T17:38:08.010Z,3.85
2023-05-06T17:40:37.863Z,4.55
2023-05-06T17:43:05.650Z,4.15
2023-05-06T17:45:33.362Z,5.10
2023-05-06T17:48:00.635Z,4.55
2023-05-06T17:50:27.596Z,4.57
2023-05-06T17:52:54.601Z,5.10
2023-05-06T17:55:22.393Z,5.25
2023-05-06T17:57:49.668Z,5.28
2023-05-06T18:00:17.122Z,6.32
2023-05-06T18:02:45.015Z,7.88
2023-05-06T18:05:13.448Z,7.00
2023-05-06T18:07:41.049Z,7.00
2023-05-06T18:10:08.777Z,7.78
2023-05-06T18:12:35.858Z,9.20
2023-05-06T18:15:03.223Z,7.85
2023-05-06T18:17:30.125Z,6.00
2023-05-06T18:19:57.092Z,7.07
2023-05-06T18:22:23.971Z,6.18
2023-05-06T18:24:55.138Z,6.05
2023-05-06T18:27:22.686Z,6.93
2023-05-06T18:29:49.723Z,7.18
2023-05-06T18:32:17.387Z,6.18
2023-05-06T18:34:44.205Z,7.07
2023-05-06T18:37:11.092Z,8.38
2023-05-06T18:39:41.943Z,7.80
2023-05-06T18:42:09.661Z,8.65
2023-05-06T18:44:36.811Z,8.13
2023-05-06T18:47:03.760Z,7.40
2023-05-06T18:49:31.396Z,7.80
2023-05-06T18:51:58.545Z,7.78
2023-05-06T18:54:25.496Z,8.32
2023-05-06T18:56:52.385Z,8.45
2023-05-06T18:59:19.804Z,9.48
2023-05-06T19:01:46.905Z,8.98
2023-05-06T19:04:13.797Z,8.55
2023-05-06T19:06:41.062Z,9.30
2023-05-06T19:09:08.074Z,8.50
2023-05-06T19:11:35.547Z,9.02
2023-05-06T19:14:02.785Z,9.80
2023-05-06T19:16:29.785Z,10.95
2023-05-06T19:18:56.777Z,10.13
2023-05-06T19:21:23.940Z,10.13
2023-05-06T19:23:50.882Z,10.07
2023-05-06T19:26:17.774Z,10.55
2023-05-06T19:28:44.614Z,10.10
2023-05-06T19:31:11.842Z,11.55
2023-05-06T19:33:39.360Z,11.20
2023-05-06T19:36:06.952Z,11.20
2023-05-06T19:38:34.586Z,10.63
2023-05-06T19:41:01.964Z,11.27
2023-05-06T19:43:28.850Z,11.50
2023-05-06T19:45:56.146Z,12.48
2023-05-06T19:48:23.852Z,11.48
2023-05-06T19:50:53.868Z,13.88
2023-05-06T19:53:22.730Z,18.08
2023-05-06T19:55:49.765Z,15.55
2023-05-06T19:58:17.323Z,14.07
2023-05-06T20:00:45.650Z,13.63
2023-05-06T20:03:12.752Z,12.70
2023-05-06T20:05:39.768Z,11.27
2023-05-06T20:08:10.827Z,12.20
2023-05-06T20:10:38.262Z,13.25
2023-05-06T20:13:06.520Z,12.85
2023-05-06T20:15:33.992Z,12.57
2023-05-06T20:18:08.112Z,12.95
2023-05-06T20:20:36.162Z,13.35
2023-05-06T20:23:03.229Z,14.45
2023-05-06T20:25:30.589Z,12.52
2023-05-06T20:27:58.808Z,12.88
2023-05-06T20:30:26.638Z,12.38
2023-05-06T20:32:53.754Z,11.63
2023-05-06T20:35:31.561Z,11.38
2023-05-06T20:37:58.474Z,11.55
2023-05-06T20:40:25.379Z,10.70
2023-05-06T20:42:52.230Z,10.50
2023-05-06T20:45:19.118Z,11.82
2023-05-06T20:47:46.029Z,9.68
2023-05-06T20:50:17.049Z,9.85
2023-05-06T20:52:47.669Z,11.77
2023-05-06T20:55:15.890Z,12.10
2023-05-06T20:57:44.003Z,9.00
2023-05-06T21:00:11.895Z,7.65
2023-05-06T21:02:41.159Z,7.97
2023-05-06T21:05:10.107Z,7.70
2023-05-06T21:07:37.254Z,6.85
2023-05-06T21:10:05.852Z,7.10
2023-05-06T21:12:33.852Z,6.75
2023-05-06T21:15:01.118Z,6.65
2023-05-06T21:17:28.564Z,6.85
2023-05-06T21:19:55.582Z,6.90
2023-05-06T21:22:23.632Z,6.90
2023-05-06T21:24:51.401Z,6.68
2023-05-06T21:27:18.431Z,7.22
2023-05-06T21:29:45.428Z,6.68
2023-05-06T21:32:12.347Z,6.68
2023-05-06T21:34:39.437Z,6.10
2023-05-06T21:37:06.528Z,6.82
2023-05-06T21:39:33.423Z,6.20
2023-05-06T21:42:00.437Z,5.80
2023-05-06T21:44:27.304Z,6.25
2023-05-06T21:46:54.309Z,6.18
2023-05-06T21:49:22.419Z,7.38
2023-05-06T21:51:49.521Z,6.88
2023-05-06T21:54:17.344Z,6.28
2023-05-06T21:56:44.500Z,6.53
2023-05-06T21:59:11.383Z,6.38
2023-05-06T22:01:43.263Z,6.30
2023-05-06T22:04:13.100Z,6.93
2023-05-06T22:06:40.521Z,6.28
2023-05-06T22:09:09.441Z,6.05
2023-05-06T22:11:38.136Z,5.78
2023-05-06T22:14:06.413Z,5.90
2023-05-06T22:16:37.955Z,6.15
2023-05-06T22:19:05.905Z,5.85
2023-05-06T22:21:34.617Z,6.07
2023-05-06T22:24:01.606Z,6.38
2023-05-06T22:26:28.705Z,5.53
2023-05-06T22:28:56.934Z,5.65
2023-05-06T22:31:24.868Z,5.88
2023-05-06T22:33:55.467Z,5.05
2023-05-06T22:36:22.889Z,5.82
2023-05-06T22:38:49.905Z,5.65
2023-05-06T22:41:21.441Z,6.00
2023-05-06T22:43:51.168Z,5.85
2023-05-06T22:46:20.410Z,5.97
2023-05-06T22:48:47.297Z,4.90
2023-05-06T22:51:18.668Z,5.65
2023-05-06T22:53:45.641Z,6.38
2023-05-06T22:56:12.749Z,6.18
2023-05-06T22:58:40.001Z,6.53
2023-05-06T23:01:14.472Z,6.78
2023-05-06T23:03:41.381Z,7.07
2023-05-06T23:06:08.804Z,6.50
2023-05-06T23:08:35.851Z,7.18
2023-05-06T23:11:02.809Z,6.70
2023-05-06T23:13:31.282Z,7.80
2023-05-06T23:15:58.242Z,6.90
2023-05-06T23:18:25.110Z,7.85
2023-05-06T23:20:51.968Z,7.43
2023-05-06T23:23:18.960Z,7.47
2023-05-06T23:25:45.728Z,7.40
2023-05-06T23:28:12.552Z,8.10
2023-05-06T23:30:39.453Z,8.73
2023-05-06T23:33:07.777Z,8.38
2023-05-06T23:35:34.691Z,8.60
2023-05-06T23:38:01.549Z,9.13
2023-05-06T23:40:28.392Z,10.15
2023-05-06T23:42:55.254Z,9.25
2023-05-06T23:45:22.055Z,9.23
2023-05-06T23:47:48.891Z,9.80
2023-05-06T23:50:15.813Z,9.60
2023-05-06T23:52:42.829Z,9.60
2023-05-06T23:55:09.957Z,10.38
2023-05-06T23:57:36.877Z,10.23
